METAR Data
IDs: Format: Raw Decoded Include TAF

Data at: 0424 UTC 26 Sep 2018

KJMR 260416Z AUTO 00000KT 10SM CLR 07/06 A3000 RMK AO2
KJMR 260356Z AUTO 27003KT 10SM SCT046 07/06 A2999 RMK AO2
KJMR 260337Z AUTO 26003KT 10SM BKN048 07/06 A3000 RMK AO2
KJMR 260317Z AUTO 00000KT 10SM BKN050 07/06 A3000 RMK AO2
KJMR 260257Z AUTO 26004KT 10SM SCT050 07/05 A3000 RMK AO2
KJMR 260236Z AUTO 25004KT 10SM BKN050 08/06 A3000 RMK AO2
KJMR 260217Z AUTO 00000KT 10SM SCT050 07/05 A3000 RMK AO2
KJMR 260157Z AUTO 27003KT 10SM BKN048 08/05 A3000 RMK AO2
KJMR 260137Z AUTO 24004KT 10SM OVC046 08/06 A2999 RMK AO2
KJMR 260117Z AUTO 25003KT 10SM BKN046 OVC070 08/06 A2999 RMK AO2
KJMR 260056Z AUTO 26004KT 10SM BKN046 OVC065 09/06 A2999 RMK AO2
KJMR 260037Z AUTO 26003KT 10SM BKN044 OVC065 09/06 A2999 RMK AO2
KJMR 260017Z AUTO 28004KT 10SM SCT035 OVC042 09/05 A2998 RMK AO2
KJMR 252357Z AUTO 28004KT 10SM BKN035 OVC050 09/05 A2998 RMK AO2
KJMR 252336Z AUTO 30005KT 10SM OVC048 09/05 A2998 RMK AO2
KJMR 252317Z AUTO 29005KT 10SM SCT030 OVC048 10/06 A2997 RMK AO2
KJMR 252256Z AUTO 30004KT 10SM SCT030 BKN039 BKN070 10/06 A2996 RMK AO2
KJMR 252236Z AUTO 30008KT 10SM SCT008 SCT023 BKN036 10/06 A2996 RMK AO2
KJMR 252216Z AUTO 31008KT 280V350 10SM -RA SCT008 SCT026 BKN034 10/06 A2995 RMK AO2
KJMR 252157Z AUTO 32010G16KT 10SM BKN030 BKN050 10/06 A2995 RMK AO2
KJMR 252136Z AUTO 30011KT 10SM BKN030 BKN035 BKN050 10/05 A2995 RMK AO2
KJMR 252116Z AUTO 31010G14KT 10SM SCT028 SCT032 SCT085 10/05 A2995 RMK AO2
KJMR 252057Z AUTO 32008G15KT 10SM SCT025 BKN032 10/06 A2995 RMK AO2
KJMR 252036Z AUTO 30007KT 10SM BKN032 10/06 A2995 RMK AO2
KJMR 252017Z AUTO 30008KT 10SM BKN030 BKN035 10/07 A2995 RMK AO2
KJMR 251956Z AUTO 30008KT 10SM SCT027 OVC035 10/06 A2996 RMK AO2
KJMR 251937Z AUTO 32008KT 10SM BKN029 OVC035 10/05 A2995 RMK AO2
KJMR 251917Z AUTO 31005KT 10SM SCT020 OVC029 10/07 A2996 RMK AO2
KJMR 251856Z AUTO 32006KT 10SM BKN020 OVC027 10/07 A2995 RMK AO2
KJMR 251837Z AUTO 32007KT 10SM BKN020 OVC028 10/07 A2994 RMK AO2
KJMR 251817Z AUTO 33007KT 10SM SCT015 BKN022 OVC028 10/07 A2995 RMK AO2
KJMR 251757Z AUTO 30006KT 10SM OVC028 10/07 A2996 RMK AO2
KJMR 251736Z AUTO 32006KT 10SM SCT016 OVC028 10/07 A2998 RMK AO2
KJMR 251717Z AUTO 30005KT 10SM BKN026 10/07 A2997 RMK AO2
KJMR 251656Z AUTO 29003KT 10SM CLR 09/06 A2998 RMK AO2
KJMR 251636Z AUTO 26003KT 10SM CLR 09/06 A2998 RMK AO2
KJMR 251617Z AUTO 00000KT 10SM SCT023 SCT120 08/06 A2997 RMK AO2
KJMR 251557Z AUTO 00000KT 10SM SCT023 08/06 A2997 RMK AO2
KJMR 251537Z AUTO 00000KT 10SM SCT012 08/06 A2997 RMK AO2
KJMR 251517Z AUTO 31003KT 10SM BKN012 07/05 A2998 RMK AO2
KJMR 251456Z AUTO 34006KT 10SM OVC012 07/05 A2999 RMK AO2
KJMR 251437Z AUTO 33005KT 10SM OVC010 07/06 A2997 RMK AO2
KJMR 251416Z AUTO 33008KT 10SM OVC010 07/06 A2996 RMK AO2
KJMR 251356Z AUTO 36003KT 10SM BKN010 OVC016 07/06 A2994 RMK AO2
KJMR 251337Z AUTO 33006KT 10SM OVC011 08/06 A2994 RMK AO2
KJMR 251317Z AUTO 36003KT 10SM OVC013 08/06 A2993 RMK AO2
KJMR 251257Z AUTO 35003KT 5SM BR OVC013 08/07 A2995 RMK AO2
KJMR 251237Z AUTO 35003KT 10SM OVC013 09/08 A2995 RMK AO2
KJMR 251216Z AUTO 00000KT 10SM -DZ SCT007 OVC013 09/07 A2994 RMK AO2
KJMR 251157Z AUTO 00000KT 7SM DZ SCT007 OVC011 09/07 A2993 RMK AO2
KJMR 251137Z AUTO 00000KT 10SM OVC011 09/08 A2993 RMK AO2
KJMR 251116Z AUTO 00000KT 10SM OVC014 10/08 A2993 RMK AO2
KJMR 251056Z AUTO 33003KT 10SM SCT010 OVC014 10/09 A2994 RMK AO2
KJMR 251036Z AUTO 32004KT 10SM BKN012 10/09 A2993 RMK AO2
KJMR 251017Z AUTO 33005KT 7SM OVC012 10/09 A2993 RMK AO2
KJMR 250957Z AUTO 35003KT 7SM OVC012 10/09 A2994 RMK AO2
KJMR 250937Z AUTO 33004KT 7SM OVC012 10/08 A2993 RMK AO2
KJMR 250916Z AUTO 31003KT 10SM BKN012 OVC017 10/08 A2993 RMK AO2
KJMR 250857Z AUTO 33005KT 10SM SCT011 OVC017 10/08 A2992 RMK AO2
KJMR 250837Z AUTO 30005KT 10SM OVC010 10/08 A2992 RMK AO2
KJMR 250816Z AUTO 33007KT 10SM OVC013 10/08 A2991 RMK AO2
KJMR 250757Z AUTO 33008KT 10SM OVC013 10/08 A2991 RMK AO2
KJMR 250737Z AUTO 32008KT 10SM OVC013 10/09 A2990 RMK AO2
KJMR 250716Z AUTO 33007KT 10SM OVC011 11/10 A2990 RMK AO2
KJMR 250656Z AUTO 00000KT 10SM OVC011 12/11 A2990 RMK AO2
KJMR 250636Z AUTO 00000KT 10SM OVC011 12/11 A2990 RMK AO2
KJMR 250617Z AUTO 31004KT 10SM BKN007 OVC011 12/11 A2990 RMK AO2
KJMR 250556Z AUTO 30004KT 10SM OVC009 12/10 A2989 RMK AO2
KJMR 250537Z AUTO 30006KT 10SM OVC011 12/10 A2990 RMK AO2
KJMR 250516Z AUTO 32005KT 10SM OVC011 12/11 A2990 RMK AO2
KJMR 250456Z AUTO 31008KT 10SM OVC011 12/11 A2990 RMK AO2
KJMR 250436Z AUTO 32007KT 10SM BKN011 OVC023 12/11 A2989 RMK AO2
KJMR 250417Z AUTO 32009KT 10SM BKN009 OVC021 13/12 A2988 RMK AO2
KJMR 250356Z AUTO 31006KT 10SM BKN011 OVC017 13/12 A2987 RMK AO2
KJMR 250336Z AUTO 30003KT 10SM BKN016 BKN024 OVC095 13/12 A2986 RMK AO2
KJMR 250317Z AUTO 33005KT 10SM SCT024 BKN095 13/12 A2986 RMK AO2
KJMR 250257Z AUTO 33005KT 10SM SCT095 13/12 A2985 RMK AO2
KJMR 250237Z AUTO 32003KT 10SM RA SCT007 SCT010 SCT044 13/12 A2985 RMK AO2 P0011
KJMR 250217Z AUTO 00000KT 4SM RA BKN007 OVC010 12/11 A2985 RMK AO2 P0008
KJMR 250157Z AUTO 00000KT 4SM RA SCT005 BKN010 OVC018 12/11 A2985 RMK AO2 P0001
KJMR 250136Z AUTO 00000KT 5SM +RA SCT005 SCT012 OVC039 13/11 A2984 RMK AO2 P0004
KJMR 250117Z AUTO 01003KT 10SM DZ SCT009 SCT026 BKN042 13/11 A2984 RMK AO2 P0001
KJMR 250057Z AUTO 00000KT 10SM RA SCT009 BKN028 OVC035 13/11 A2984 RMK AO2
KJMR 250036Z AUTO 33009KT 10SM -RA BKN035 OVC045 15/11 A2984 RMK AO2
KJMR 250016Z AUTO 34008KT 10SM BKN032 BKN039 OVC045 15/11 A2983 RMK AO2
KJMR 242357Z AUTO 33011G18KT 10SM SCT017 SCT025 OVC030 15/11 A2984 RMK AO2
KJMR 242337Z AUTO 32011G17KT 10SM BKN017 BKN022 OVC065 16/12 A2982 RMK AO2
KJMR 242317Z AUTO 31012KT 10SM BKN020 BKN026 OVC037 18/15 A2982 RMK AO2
KJMR 242256Z AUTO 29009G15KT 10SM SCT025 SCT039 BKN046 18/13 A2982 RMK AO2
KJMR 242237Z AUTO 20006KT 10SM SCT048 SCT060 SCT090 20/14 A2980 RMK AO2
KJMR 242217Z AUTO 20006KT 10SM SCT080 21/15 A2979 RMK AO2
KJMR 242156Z AUTO 18009G16KT 10SM BKN080 21/14 A2979 RMK AO2
KJMR 242136Z AUTO 19010KT 10SM SCT080 21/14 A2979 RMK AO2
KJMR 242117Z AUTO 19012KT 10SM SCT039 SCT050 21/13 A2980 RMK AO2
KJMR 242056Z AUTO 20013KT 10SM SCT039 SCT046 BKN050 21/13 A2981 RMK AO2
KJMR 242037Z AUTO 19013G16KT 10SM SCT034 SCT043 BKN049 21/14 A2981 RMK AO2
KJMR 242016Z AUTO 20011G22KT 10SM SCT048 21/14 A2981 RMK AO2
KJMR 241956Z AUTO 19012KT 10SM SCT037 BKN048 21/15 A2982 RMK AO2
KJMR 241937Z AUTO 21011G19KT 10SM OVC035 21/14 A2982 RMK AO2
KJMR 241916Z AUTO 20015G21KT 10SM BKN035 21/15 A2982 RMK AO2
KJMR 241856Z AUTO 19014G19KT 10SM SCT033 21/14 A2982 RMK AO2
KJMR 241837Z AUTO 21015G19KT 10SM SCT033 21/14 A2983 RMK AO2
KJMR 241816Z AUTO 19013G18KT 10SM CLR 21/13 A2984 RMK AO2
KJMR 241756Z AUTO 20012G17KT 10SM CLR 21/13 A2985 RMK AO2
KJMR 241737Z AUTO 18010G18KT 10SM CLR 20/12 A2985 RMK AO2
KJMR 241717Z AUTO 20008G18KT 10SM CLR 18/12 A2986 RMK AO2
KJMR 241657Z AUTO 18012G20KT 10SM CLR 18/12 A2986 RMK AO2
KJMR 241637Z AUTO 18009G16KT 10SM CLR 18/12 A2987 RMK AO2